Time;durP1;ratioP1;P1;durP2;ratioP2;P2;SDS_P1;SDS_P2;PMS_P1;PMS_P2;Temp;Humidity;BMP_temperature;BMP_pressure;BME280_temperature;BME280_humidity;BME280_pressure;Samples;Min_cycle;Max_cycle;Signal;HPM_P1;HPM_P2
2023/06/18 00:00:55;;;;;;;10.57;4.80;;;16.90;97.60;;;;;;5030226;28;20402;-71
2023/06/18 00:03:20;;;;;;;11.93;5.20;;;16.90;97.70;;;;;;5028098;28;20037;-70
2023/06/18 00:05:46;;;;;;;13.57;6.15;;;16.90;97.70;;;;;;5024903;28;20505;-70
2023/06/18 00:08:11;;;;;;;13.70;5.80;;;16.90;97.70;;;;;;5024300;28;20090;-71
2023/06/18 00:10:37;;;;;;;9.68;5.78;;;16.90;97.70;;;;;;5044817;28;21511;-71
2023/06/18 00:13:04;;;;;;;11.50;5.45;;;16.80;97.70;;;;;;5028772;28;20036;-70
2023/06/18 00:15:29;;;;;;;13.40;5.82;;;16.80;97.70;;;;;;5025293;28;20033;-70
2023/06/18 00:17:55;;;;;;;13.18;5.72;;;16.80;97.80;;;;;;5012023;28;20155;-71
2023/06/18 00:20:21;;;;;;;14.07;5.88;;;16.80;97.80;;;;;;5026826;28;20126;-71
2023/06/18 00:22:48;;;;;;;12.85;6.15;;;16.80;97.90;;;;;;5027114;28;20126;-70
2023/06/18 00:25:14;;;;;;;12.23;5.72;;;16.60;97.90;;;;;;5022892;28;20501;-70
2023/06/18 00:27:40;;;;;;;10.80;4.60;;;16.70;97.90;;;;;;5026556;28;20052;-71
2023/06/18 00:30:06;;;;;;;12.40;5.60;;;16.70;97.90;;;;;;5010470;28;20047;-71
2023/06/18 00:32:32;;;;;;;10.68;5.10;;;16.60;97.80;;;;;;5027091;28;20502;-71
2023/06/18 00:35:00;;;;;;;10.45;5.65;;;16.60;97.80;;;;;;5026329;28;20037;-70
2023/06/18 00:37:27;;;;;;;12.68;5.25;;;16.60;97.80;;;;;;5025022;28;20044;-70
2023/06/18 00:39:56;;;;;;;12.50;5.50;;;16.50;97.90;;;;;;5028357;28;20043;-70
2023/06/18 00:42:22;;;;;;;11.70;5.88;;;16.30;98.10;;;;;;5011167;28;20087;-70
2023/06/18 00:44:48;;;;;;;11.30;5.90;;;16.20;98.40;;;;;;5026501;28;20512;-70
2023/06/18 00:47:14;;;;;;;14.23;6.32;;;16.30;98.60;;;;;;5028229;28;20514;-70
2023/06/18 00:49:41;;;;;;;11.57;5.85;;;16.30;98.70;;;;;;5027112;28;20067;-70
2023/06/18 00:52:09;;;;;;;11.18;5.50;;;16.20;98.70;;;;;;5042964;28;20040;-71
2023/06/18 00:54:36;;;;;;;12.57;5.55;;;16.20;98.60;;;;;;5024407;28;20033;-71
2023/06/18 00:57:03;;;;;;;12.13;5.78;;;16.30;98.60;;;;;;5024718;28;20037;-70
2023/06/18 00:59:29;;;;;;;14.00;6.35;;;16.30;98.60;;;;;;5027545;28;20052;-70
2023/06/18 01:01:56;;;;;;;11.77;5.95;;;16.30;98.60;;;;;;5027473;28;20045;-70
2023/06/18 01:04:26;;;;;;;10.90;5.55;;;16.30;98.50;;;;;;5024528;28;20037;-70
2023/06/18 01:06:54;;;;;;;12.23;5.50;;;16.30;98.40;;;;;;5007473;28;20394;-70
2023/06/18 01:09:25;;;;;;;12.05;5.45;;;16.30;98.30;;;;;;5008562;28;20048;-70
2023/06/18 01:11:52;;;;;;;10.68;5.28;;;16.30;98.30;;;;;;5011920;28;20341;-70
2023/06/18 01:14:22;;;;;;;14.02;5.63;;;16.20;98.30;;;;;;5026039;28;20052;-71
2023/06/18 01:16:53;;;;;;;12.25;5.35;;;16.20;98.40;;;;;;5025419;28;20045;-70
2023/06/18 01:19:30;;;;;;;16.27;5.80;;;16.20;98.40;;;;;;5024729;28;20068;-70
2023/06/18 01:22:01;;;;;;;12.93;6.65;;;16.20;98.40;;;;;;5026913;28;20079;-70
2023/06/18 01:24:30;;;;;;;13.10;6.40;;;16.20;98.40;;;;;;5031286;28;20098;-70
2023/06/18 01:26:57;;;;;;;15.52;6.28;;;16.20;98.40;;;;;;5010416;28;20477;-71
2023/06/18 01:29:26;;;;;;;15.73;6.38;;;16.20;98.30;;;;;;5026900;28;20486;-71
2023/06/18 01:31:52;;;;;;;17.33;6.57;;;16.10;98.30;;;;;;5026709;28;20135;-70
2023/06/18 01:34:20;;;;;;;13.27;6.05;;;16.10;98.30;;;;;;5010722;28;20037;-70
2023/06/18 01:37:06;;;;;;;15.70;6.60;;;16.10;98.30;;;;;;5026333;28;20044;-70
2023/06/18 01:39:56;;;;;;;14.80;6.03;;;16.10;98.60;;;;;;5013356;28;20072;-70
2023/06/18 01:42:24;;;;;;;15.82;6.30;;;16.00;98.60;;;;;;5022349;28;20051;-71
2023/06/18 01:45:13;;;;;;;15.95;6.50;;;16.00;98.30;;;;;;5031578;28;20445;-70
2023/06/18 01:47:42;;;;;;;13.57;5.88;;;16.00;98.80;;;;;;5025075;28;20033;-70
2023/06/18 01:50:09;;;;;;;12.57;6.05;;;16.00;98.50;;;;;;5029375;28;20090;-71
2023/06/18 01:52:39;;;;;;;16.27;6.35;;;15.90;98.50;;;;;;5032414;28;20033;-70
2023/06/18 01:55:05;;;;;;;14.82;6.28;;;15.90;98.70;;;;;;5029105;28;20491;-70
2023/06/18 01:57:34;;;;;;;16.38;6.22;;;15.90;98.70;;;;;;5030184;28;20037;-71
2023/06/18 02:00:00;;;;;;;10.77;5.90;;;15.90;98.70;;;;;;5030177;28;20523;-70
2023/06/18 02:02:26;;;;;;;11.18;5.28;;;15.90;98.70;;;;;;5027133;28;20120;-70
2023/06/18 02:04:51;;;;;;;12.73;5.45;;;15.90;98.60;;;;;;5013116;28;20107;-70
2023/06/18 02:07:17;;;;;;;13.52;6.47;;;15.90;98.70;;;;;;5030657;28;20079;-70
2023/06/18 02:09:43;;;;;;;12.30;5.85;;;15.90;98.70;;;;;;5030081;28;20029;-71
2023/06/18 02:12:09;;;;;;;14.43;5.13;;;15.90;98.70;;;;;;5031633;28;20037;-71
2023/06/18 02:14:34;;;;;;;12.77;5.68;;;15.80;98.70;;;;;;5028620;28;20047;-71
2023/06/18 02:17:00;;;;;;;12.55;5.85;;;15.80;98.70;;;;;;5031777;28;20398;-71
2023/06/18 02:19:26;;;;;;;10.88;5.45;;;15.80;98.80;;;;;;5028088;28;20063;-71
2023/06/18 02:21:52;;;;;;;14.55;5.82;;;15.80;98.80;;;;;;5045819;28;20033;-71
2023/06/18 02:24:19;;;;;;;14.45;6.78;;;15.80;98.80;;;;;;5007468;28;20056;-71
2023/06/18 02:26:45;;;;;;;14.05;6.13;;;15.80;98.90;;;;;;5025368;28;20037;-71
2023/06/18 02:29:11;;;;;;;14.15;6.38;;;15.80;98.90;;;;;;5025400;28;20041;-71
2023/06/18 02:31:36;;;;;;;14.73;6.53;;;15.80;99.00;;;;;;5026448;28;20033;-71
2023/06/18 02:34:02;;;;;;;14.73;6.10;;;15.70;99.00;;;;;;5011191;28;20056;-71
2023/06/18 02:36:28;;;;;;;12.57;6.43;;;15.70;99.10;;;;;;5025585;28;20516;-71
2023/06/18 02:38:55;;;;;;;15.43;6.60;;;15.70;99.10;;;;;;5026374;28;20183;-71
2023/06/18 02:41:21;;;;;;;13.38;6.55;;;15.70;99.10;;;;;;5025164;28;20120;-71
2023/06/18 02:43:49;;;;;;;14.27;6.50;;;15.70;99.10;;;;;;5010968;28;20124;-71
2023/06/18 02:46:16;;;;;;;14.13;6.20;;;15.60;99.10;;;;;;5027034;28;20041;-71
2023/06/18 02:48:41;;;;;;;14.82;5.85;;;15.70;99.20;;;;;;5007149;28;20124;-71
2023/06/18 02:51:07;;;;;;;13.32;6.35;;;15.70;99.20;;;;;;5007217;28;20435;-71
2023/06/18 02:53:33;;;;;;;14.60;6.28;;;15.60;99.20;;;;;;5024321;28;20041;-71
2023/06/18 02:55:59;;;;;;;12.90;5.88;;;15.60;99.30;;;;;;5026399;28;20399;-71
2023/06/18 02:58:30;;;;;;;12.73;5.78;;;15.60;99.20;;;;;;5026094;28;20072;-71
2023/06/18 03:00:59;;;;;;;12.52;5.55;;;15.50;99.00;;;;;;5026814;28;20037;-71
2023/06/18 03:03:25;;;;;;;12.48;6.25;;;15.50;99.10;;;;;;5026639;28;20455;-71
2023/06/18 03:05:52;;;;;;;14.02;6.30;;;15.40;99.10;;;;;;5027232;28;20048;-71
2023/06/18 03:08:21;;;;;;;13.77;6.55;;;15.40;99.20;;;;;;5039350;28;20037;-71
2023/06/18 03:10:47;;;;;;;14.98;6.28;;;15.30;99.20;;;;;;5011720;28;20033;-71
2023/06/18 03:13:13;;;;;;;10.27;4.47;;;15.30;99.40;;;;;;5027638;28;20124;-71
2023/06/18 03:15:38;;;;;;;8.77;4.15;;;15.30;99.40;;;;;;5027161;28;20073;-71
2023/06/18 03:18:05;;;;;;;10.57;4.53;;;15.30;99.40;;;;;;5023963;28;20102;-71
2023/06/18 03:20:32;;;;;;;14.77;5.72;;;15.30;99.40;;;;;;5025568;28;20045;-71
2023/06/18 03:22:58;;;;;;;13.30;6.05;;;15.30;99.40;;;;;;5023856;28;20075;-71
2023/06/18 03:25:24;;;;;;;15.15;6.70;;;15.30;99.50;;;;;;5000861;28;20053;-71
2023/06/18 03:27:52;;;;;;;18.58;7.05;;;15.20;99.60;;;;;;5024647;28;20052;-71
2023/06/18 03:30:18;;;;;;;16.75;6.20;;;15.20;99.70;;;;;;5040879;28;20042;-71
2023/06/18 03:32:44;;;;;;;14.93;6.65;;;15.20;99.80;;;;;;5024418;28;20044;-71
2023/06/18 03:35:10;;;;;;;15.88;7.05;;;15.30;99.90;;;;;;5008728;28;20080;-71
2023/06/18 03:37:36;;;;;;;15.45;6.88;;;15.30;99.70;;;;;;5024139;28;20042;-71
2023/06/18 03:40:03;;;;;;;21.00;8.57;;;15.30;99.70;;;;;;5009256;28;20521;-71
2023/06/18 03:42:29;;;;;;;18.88;7.72;;;15.20;99.70;;;;;;5024442;28;20033;-71
2023/06/18 03:44:55;;;;;;;17.92;8.00;;;15.30;99.80;;;;;;5024775;28;20064;-71
2023/06/18 03:47:20;;;;;;;20.88;8.05;;;15.30;99.80;;;;;;5023169;28;20042;-71
2023/06/18 03:49:46;;;;;;;19.20;7.60;;;15.30;99.80;;;;;;5024991;28;20124;-71
2023/06/18 03:52:12;;;;;;;19.00;8.07;;;15.30;99.80;;;;;;5022754;28;20033;-71
2023/06/18 03:54:38;;;;;;;22.90;8.70;;;15.20;99.90;;;;;;5026825;28;20037;-71
2023/06/18 03:57:04;;;;;;;15.40;7.05;;;15.30;99.90;;;;;;5006895;28;20029;-71
2023/06/18 03:59:30;;;;;;;17.50;7.30;;;15.30;99.90;;;;;;5023872;28;20052;-71
2023/06/18 04:01:56;;;;;;;18.48;8.18;;;15.30;99.90;;;;;;5022628;28;20073;-71
2023/06/18 04:04:22;;;;;;;18.35;8.30;;;15.40;99.90;;;;;;5025951;28;20069;-71
2023/06/18 04:06:48;;;;;;;18.27;8.32;;;15.40;99.90;;;;;;5024324;28;20037;-71
2023/06/18 04:09:14;;;;;;;20.35;7.65;;;15.40;99.90;;;;;;5006126;28;20044;-71
2023/06/18 04:11:40;;;;;;;20.35;8.77;;;15.40;99.90;;;;;;5022796;28;20250;-71
2023/06/18 04:14:06;;;;;;;20.63;8.73;;;15.40;99.90;;;;;;5040989;28;20056;-71
2023/06/18 04:16:32;;;;;;;24.40;9.05;;;15.50;99.90;;;;;;5023898;28;20116;-71
2023/06/18 04:18:57;;;;;;;24.00;9.20;;;15.50;99.90;;;;;;5022245;28;20124;-71
2023/06/18 04:21:23;;;;;;;22.50;9.05;;;15.50;99.90;;;;;;5025527;28;20048;-71
2023/06/18 04:23:48;;;;;;;23.88;8.43;;;15.60;99.90;;;;;;5020708;28;20049;-71
2023/06/18 04:26:14;;;;;;;23.10;9.32;;;15.60;99.90;;;;;;5027242;28;20052;-71
2023/06/18 04:28:40;;;;;;;21.75;9.02;;;15.70;99.90;;;;;;5040238;28;20041;-71
2023/06/18 04:31:05;;;;;;;22.45;9.02;;;15.70;99.90;;;;;;5045647;28;20033;-71
2023/06/18 04:33:31;;;;;;;18.45;8.27;;;15.80;99.90;;;;;;5046168;28;20064;-71
2023/06/18 04:35:57;;;;;;;23.40;9.00;;;15.80;99.90;;;;;;5028338;28;20071;-71
2023/06/18 04:38:22;;;;;;;21.25;9.23;;;15.80;99.90;;;;;;5025920;28;20077;-71
2023/06/18 04:40:49;;;;;;;22.55;8.70;;;15.80;99.90;;;;;;5041857;28;20044;-71
2023/06/18 04:43:17;;;;;;;21.98;8.80;;;15.90;99.90;;;;;;5028260;28;20033;-71
2023/06/18 04:45:44;;;;;;;21.45;8.55;;;15.90;99.90;;;;;;5028306;28;20080;-71
2023/06/18 04:48:10;;;;;;;24.75;9.52;;;15.90;99.90;;;;;;5043855;28;20103;-71
2023/06/18 04:50:35;;;;;;;27.38;8.77;;;16.00;99.90;;;;;;5028303;28;20486;-71
2023/06/18 04:53:01;;;;;;;22.42;9.13;;;16.00;99.90;;;;;;5027355;28;20090;-71
2023/06/18 04:55:27;;;;;;;23.65;9.20;;;16.00;99.90;;;;;;5023595;28;20044;-71
2023/06/18 04:57:53;;;;;;;21.08;9.18;;;16.00;99.90;;;;;;5011210;28;20398;-71
2023/06/18 05:00:20;;;;;;;21.92;9.15;;;16.00;99.90;;;;;;5026236;28;20053;-71
2023/06/18 05:02:46;;;;;;;25.60;9.77;;;16.00;99.90;;;;;;5028172;28;20071;-71
2023/06/18 05:05:11;;;;;;;23.52;9.27;;;16.10;99.90;;;;;;5025373;28;20127;-71
2023/06/18 05:07:37;;;;;;;25.05;9.27;;;16.10;99.90;;;;;;5009564;28;20037;-70
2023/06/18 05:10:04;;;;;;;21.27;8.57;;;16.10;99.90;;;;;;5039989;28;20037;-70
2023/06/18 05:12:30;;;;;;;22.50;8.90;;;16.20;99.90;;;;;;5029458;28;20072;-71
2023/06/18 05:14:55;;;;;;;20.88;8.23;;;16.10;99.90;;;;;;5029778;28;20065;-71
2023/06/18 05:17:21;;;;;;;21.35;8.43;;;16.20;99.90;;;;;;5047105;28;20460;-71
2023/06/18 05:19:46;;;;;;;19.63;7.90;;;16.20;99.90;;;;;;5048863;28;20021;-71
2023/06/18 05:22:12;;;;;;;19.92;9.23;;;16.20;99.90;;;;;;5050357;28;20482;-71
2023/06/18 05:24:39;;;;;;;19.10;7.65;;;16.10;99.90;;;;;;5026741;28;20188;-70
2023/06/18 05:27:05;;;;;;;20.75;8.00;;;16.20;99.90;;;;;;5029343;28;20581;-70
2023/06/18 05:29:31;;;;;;;17.05;8.15;;;16.20;99.90;;;;;;5030780;28;20049;-70
2023/06/18 05:31:56;;;;;;;19.65;7.32;;;16.20;99.90;;;;;;5008417;28;20037;-70
2023/06/18 05:34:22;;;;;;;16.98;8.15;;;16.30;99.90;;;;;;5048089;28;20095;-70
2023/06/18 05:36:48;;;;;;;18.98;8.43;;;16.30;99.90;;;;;;5031759;28;20028;-71
2023/06/18 05:39:14;;;;;;;19.15;8.57;;;16.30;99.90;;;;;;5048502;28;20174;-71
2023/06/18 05:41:40;;;;;;;19.90;7.90;;;16.30;99.90;;;;;;5049486;28;20048;-71
2023/06/18 05:44:05;;;;;;;21.33;8.32;;;16.30;99.90;;;;;;5029251;28;20052;-70
2023/06/18 05:46:31;;;;;;;17.33;7.78;;;16.40;99.90;;;;;;5030484;28;20394;-70
2023/06/18 05:48:57;;;;;;;22.92;8.70;;;16.40;99.90;;;;;;5030109;28;20037;-71
2023/06/18 05:51:23;;;;;;;21.40;8.43;;;16.40;99.90;;;;;;5031450;28;20482;-71
2023/06/18 05:53:48;;;;;;;18.35;8.52;;;16.50;99.90;;;;;;5029969;28;20036;-71
2023/06/18 05:56:14;;;;;;;20.98;8.85;;;16.50;99.90;;;;;;5025431;28;20474;-71
2023/06/18 05:58:40;;;;;;;22.05;9.02;;;16.60;99.90;;;;;;5011062;28;20080;-70
2023/06/18 06:01:06;;;;;;;21.42;8.52;;;16.70;99.90;;;;;;5050775;28;20055;-71
2023/06/18 06:03:31;;;;;;;23.38;8.90;;;16.70;99.90;;;;;;5026424;28;20032;-71
2023/06/18 06:05:57;;;;;;;20.05;8.73;;;16.70;99.90;;;;;;5013535;28;20083;-71
2023/06/18 06:08:22;;;;;;;23.30;9.02;;;16.80;99.90;;;;;;5030905;28;20033;-71
2023/06/18 06:10:48;;;;;;;17.42;8.27;;;16.80;99.90;;;;;;5047427;28;20041;-71
2023/06/18 06:13:14;;;;;;;20.70;8.40;;;16.80;99.90;;;;;;5013142;28;20057;-71
2023/06/18 06:15:39;;;;;;;16.60;8.02;;;16.90;99.90;;;;;;5047198;28;20033;-71
2023/06/18 06:18:05;;;;;;;18.73;8.68;;;16.90;99.90;;;;;;5014544;28;20642;-71
2023/06/18 06:20:30;;;;;;;21.58;8.95;;;16.90;99.90;;;;;;5030536;28;20045;-71
2023/06/18 06:22:56;;;;;;;22.50;8.73;;;17.00;99.90;;;;;;5030070;28;20037;-71
2023/06/18 06:25:22;;;;;;;18.25;8.05;;;17.10;99.90;;;;;;5012534;28;20071;-71
2023/06/18 06:27:47;;;;;;;19.33;8.02;;;17.20;99.90;;;;;;5026884;28;20037;-71
2023/06/18 06:30:13;;;;;;;23.98;8.30;;;17.20;99.90;;;;;;5045214;28;20036;-71
2023/06/18 06:32:38;;;;;;;19.20;8.38;;;17.30;99.90;;;;;;5043478;28;20395;-71
2023/06/18 06:35:05;;;;;;;22.05;8.35;;;17.60;99.90;;;;;;5044619;28;20455;-71
2023/06/18 06:37:32;;;;;;;21.33;9.65;;;18.10;99.90;;;;;;5028283;28;20044;-71
2023/06/18 06:39:58;;;;;;;21.65;8.60;;;18.70;99.90;;;;;;5028221;28;20049;-72
2023/06/18 06:42:24;;;;;;;21.30;9.52;;;19.30;99.90;;;;;;5029599;28;20137;-71
2023/06/18 06:44:50;;;;;;;17.05;8.90;;;19.70;99.90;;;;;;5029033;28;20033;-71
2023/06/18 06:47:17;;;;;;;15.88;8.02;;;20.20;99.90;;;;;;5011674;28;20064;-71
2023/06/18 06:49:44;;;;;;;21.75;8.50;;;20.60;99.90;;;;;;5023523;28;20045;-71
2023/06/18 06:52:11;;;;;;;20.17;8.70;;;20.80;99.90;;;;;;5017233;28;20021;-71
2023/06/18 06:54:36;;;;;;;17.45;9.00;;;20.90;99.90;;;;;;5030331;28;20047;-71
2023/06/18 06:57:02;;;;;;;17.25;8.40;;;20.70;99.90;;;;;;5023228;28;20037;-71
2023/06/18 06:59:28;;;;;;;15.48;7.85;;;20.60;99.90;;;;;;5024946;28;20032;-71
2023/06/18 07:01:53;;;;;;;15.80;7.50;;;20.40;99.90;;;;;;5031191;28;20103;-72
2023/06/18 07:04:19;;;;;;;19.75;8.80;;;20.20;99.90;;;;;;5025484;28;20510;-72
2023/06/18 07:06:44;;;;;;;14.75;7.68;;;20.10;99.90;;;;;;5026999;28;20037;-72
2023/06/18 07:09:10;;;;;;;20.38;8.30;;;20.10;99.90;;;;;;5041572;28;20036;-71
2023/06/18 07:11:36;;;;;;;21.58;9.13;;;20.00;99.90;;;;;;5024247;28;20486;-72
2023/06/18 07:14:02;;;;;;;18.38;8.25;;;19.90;99.90;;;;;;5022324;28;20056;-71
2023/06/18 07:16:28;;;;;;;17.83;8.55;;;19.90;99.90;;;;;;5024022;28;20490;-73
2023/06/18 07:18:54;;;;;;;17.98;8.27;;;19.90;99.90;;;;;;5027385;28;20040;-72
2023/06/18 07:21:19;;;;;;;18.13;8.40;;;19.90;99.90;;;;;;5022722;28;20490;-71
2023/06/18 07:23:45;;;;;;;17.80;8.10;;;19.90;99.90;;;;;;5029478;28;20084;-72
2023/06/18 07:26:11;;;;;;;15.93;7.63;;;19.80;99.90;;;;;;5012778;28;20064;-72
2023/06/18 07:28:36;;;;;;;18.10;7.70;;;19.80;99.90;;;;;;5021774;28;20049;-72
2023/06/18 07:31:02;;;;;;;16.90;7.75;;;19.80;99.90;;;;;;5040595;28;20037;-72
2023/06/18 07:33:27;;;;;;;15.07;6.93;;;19.80;99.90;;;;;;5035547;28;20033;-72
2023/06/18 07:35:53;;;;;;;16.70;7.35;;;19.80;99.90;;;;;;5006646;28;20048;-72
2023/06/18 07:38:19;;;;;;;15.52;8.23;;;19.80;99.90;;;;;;5040788;28;20105;-72
2023/06/18 07:40:44;;;;;;;20.05;7.93;;;19.80;99.90;;;;;;5028950;28;20044;-72
2023/06/18 07:43:10;;;;;;;15.18;6.60;;;19.80;99.90;;;;;;5030813;28;20060;-71
2023/06/18 07:45:36;;;;;;;17.10;7.15;;;19.90;99.90;;;;;;5032773;28;20052;-72
2023/06/18 07:48:02;;;;;;;15.13;6.95;;;19.90;99.90;;;;;;5027706;28;20040;-72
2023/06/18 07:50:28;;;;;;;13.98;6.82;;;19.90;99.90;;;;;;5027150;28;20030;-71
2023/06/18 07:52:54;;;;;;;13.18;6.07;;;19.90;99.90;;;;;;5025260;28;20090;-72
2023/06/18 07:55:19;;;;;;;17.88;7.35;;;19.90;99.90;;;;;;5041748;28;20048;-72
2023/06/18 07:57:45;;;;;;;14.15;6.72;;;19.90;99.90;;;;;;5043716;28;20029;-72
2023/06/18 08:00:11;;;;;;;16.02;7.57;;;20.00;99.90;;;;;;5012382;28;20147;-72
2023/06/18 08:02:37;;;;;;;14.02;6.80;;;20.00;99.90;;;;;;5043694;28;20033;-72
2023/06/18 08:05:03;;;;;;;14.55;7.25;;;20.00;99.90;;;;;;5043174;28;20074;-72
2023/06/18 08:07:29;;;;;;;15.23;7.07;;;20.10;99.90;;;;;;5026355;28;20098;-70
2023/06/18 08:09:54;;;;;;;15.20;7.20;;;20.10;99.90;;;;;;5009035;28;20399;-71
2023/06/18 08:12:20;;;;;;;15.82;7.32;;;20.20;99.90;;;;;;5026367;28;20487;-72
2023/06/18 08:14:46;;;;;;;19.60;8.10;;;20.20;99.90;;;;;;5041962;28;20040;-72
2023/06/18 08:17:15;;;;;;;14.43;7.45;;;20.20;99.90;;;;;;5041695;28;20052;-72
2023/06/18 08:19:44;;;;;;;17.33;7.18;;;20.30;99.90;;;;;;5026273;28;20059;-72
2023/06/18 08:22:11;;;;;;;15.10;7.20;;;20.30;99.90;;;;;;5023904;28;20703;-72
2023/06/18 08:24:37;;;;;;;15.38;6.75;;;20.30;99.90;;;;;;5026890;28;20340;-72
2023/06/18 08:27:03;;;;;;;13.00;6.30;;;20.40;99.90;;;;;;5003333;28;20052;-71
2023/06/18 08:29:28;;;;;;;13.07;6.45;;;20.40;99.90;;;;;;5042056;28;20470;-72
2023/06/18 08:31:54;;;;;;;13.70;6.80;;;20.50;99.90;;;;;;5017075;28;20032;-72
2023/06/18 08:34:20;;;;;;;14.68;5.72;;;20.60;99.90;;;;;;5025915;28;20085;-72
2023/06/18 08:36:47;;;;;;;10.48;5.30;;;20.60;99.90;;;;;;5019795;28;20041;-72
2023/06/18 08:39:13;;;;;;;14.65;5.97;;;20.70;99.90;;;;;;5047171;28;20049;-72
2023/06/18 08:41:42;;;;;;;10.38;5.93;;;20.80;99.90;;;;;;5042248;28;20129;-71
2023/06/18 08:44:08;;;;;;;10.20;5.07;;;20.90;99.90;;;;;;5025671;28;20055;-72
2023/06/18 08:46:35;;;;;;;11.50;5.55;;;20.90;99.90;;;;;;5026510;28;20045;-72
2023/06/18 08:49:02;;;;;;;12.35;5.35;;;21.00;99.90;;;;;;5026013;28;20029;-72
2023/06/18 08:51:28;;;;;;;9.48;5.05;;;21.10;99.90;;;;;;5025147;28;20037;-72
2023/06/18 08:54:15;;;;;;;8.63;5.05;;;21.20;99.80;;;;;;5027393;28;20108;-72
2023/06/18 08:56:54;;;;;;;11.02;5.03;;;21.20;99.70;;;;;;5019862;28;20151;-71
2023/06/18 08:59:21;;;;;;;10.70;4.93;;;21.20;99.90;;;;;;5025804;28;20417;-72
2023/06/18 09:01:47;;;;;;;10.18;4.93;;;21.30;99.30;;;;;;5019318;28;20076;-72
2023/06/18 09:04:14;;;;;;;9.55;5.03;;;21.40;99.10;;;;;;5020833;28;20130;-72
2023/06/18 09:06:41;;;;;;;6.95;4.25;;;21.40;98.80;;;;;;5042759;28;20145;-72
2023/06/18 09:09:07;;;;;;;6.28;4.00;;;21.50;98.50;;;;;;5037230;28;20049;-73
2023/06/18 09:11:33;;;;;;;7.50;4.43;;;21.60;98.30;;;;;;5000775;28;20056;-72
2023/06/18 09:13:59;;;;;;;9.35;4.63;;;21.60;98.00;;;;;;5036285;28;20394;-72
2023/06/18 09:16:25;;;;;;;7.53;4.10;;;21.70;97.90;;;;;;5018412;28;20049;-73
2023/06/18 09:18:50;;;;;;;8.43;4.82;;;21.80;97.60;;;;;;5007361;28;20040;-73
2023/06/18 09:21:40;;;;;;;9.27;4.78;;;21.80;97.50;;;;;;5022645;28;20051;-73
2023/06/18 09:24:11;;;;;;;8.77;4.90;;;21.90;96.60;;;;;;5017720;28;20597;-73
2023/06/18 09:26:37;;;;;;;7.57;4.25;;;21.90;97.00;;;;;;5022739;28;20532;-73
2023/06/18 09:29:08;;;;;;;7.53;4.30;;;22.00;96.80;;;;;;5036887;28;20042;-73
2023/06/18 09:31:44;;;;;;;7.80;4.45;;;22.00;96.50;;;;;;5003199;28;20036;-73
2023/06/18 09:34:18;;;;;;;9.13;3.90;;;22.00;96.10;;;;;;5004349;28;20048;-72
2023/06/18 09:36:45;;;;;;;6.53;3.88;;;22.10;95.90;;;;;;5019127;28;20033;-73
2023/06/18 09:39:17;;;;;;;8.70;4.55;;;22.10;96.00;;;;;;5021320;28;20044;-72
2023/06/18 09:41:44;;;;;;;5.45;3.50;;;22.20;95.80;;;;;;5018482;28;20372;-73
2023/06/18 09:44:11;;;;;;;6.38;3.85;;;22.20;95.60;;;;;;5020828;28;20048;-73
2023/06/18 09:46:37;;;;;;;6.43;3.15;;;22.30;95.20;;;;;;5035603;28;20175;-73
2023/06/18 09:49:03;;;;;;;5.68;3.30;;;22.30;94.90;;;;;;5005455;28;20045;-73
2023/06/18 09:51:28;;;;;;;6.93;3.22;;;22.50;94.50;;;;;;5005933;28;20074;-73
2023/06/18 09:53:59;;;;;;;6.05;3.25;;;22.50;93.80;;;;;;5035338;28;20506;-73
2023/06/18 09:56:25;;;;;;;5.00;3.30;;;22.50;93.30;;;;;;5004375;28;20063;-73
2023/06/18 09:58:51;;;;;;;5.45;3.28;;;22.60;93.00;;;;;;5037251;28;20049;-73
2023/06/18 10:01:18;;;;;;;5.03;3.13;;;22.70;92.50;;;;;;5040440;28;20377;-73
2023/06/18 10:03:45;;;;;;;6.00;3.40;;;22.70;92.00;;;;;;5024897;28;20069;-73
2023/06/18 10:06:19;;;;;;;4.88;2.90;;;22.70;91.50;;;;;;5024757;28;20037;-73
2023/06/18 10:08:47;;;;;;;5.97;3.60;;;22.80;90.60;;;;;;5018895;28;20509;-73
2023/06/18 10:11:13;;;;;;;4.93;3.28;;;22.80;90.50;;;;;;5046079;28;20055;-73
2023/06/18 10:13:50;;;;;;;7.10;3.38;;;22.90;89.50;;;;;;5025520;28;20518;-72
2023/06/18 10:16:20;;;;;;;5.20;3.50;;;23.00;87.80;;;;;;5022894;28;20090;-72
2023/06/18 10:19:00;;;;;;;5.80;3.20;;;23.10;88.30;;;;;;5044005;28;20045;-74
2023/06/18 10:21:28;;;;;;;6.05;3.50;;;23.20;87.80;;;;;;5025162;28;20053;-73
2023/06/18 10:24:00;;;;;;;6.15;3.60;;;23.20;87.50;;;;;;5030335;28;20102;-73
2023/06/18 10:26:28;;;;;;;5.85;3.40;;;23.30;86.60;;;;;;5012049;28;20080;-74
2023/06/18 10:28:55;;;;;;;5.93;3.28;;;23.40;86.60;;;;;;5034458;28;20045;-74
2023/06/18 10:31:21;;;;;;;5.22;3.30;;;23.40;86.00;;;;;;5046219;28;20058;-74
2023/06/18 10:33:47;;;;;;;6.38;3.72;;;23.40;85.40;;;;;;5026423;28;20482;-74
2023/06/18 10:36:14;;;;;;;5.93;3.38;;;23.50;85.60;;;;;;5041173;28;20060;-74
2023/06/18 10:38:40;;;;;;;5.05;3.10;;;23.50;85.80;;;;;;5011210;28;20367;-74
2023/06/18 10:41:18;;;;;;;4.93;3.00;;;23.60;86.40;;;;;;5027090;28;20447;-74
2023/06/18 10:43:51;;;;;;;6.22;3.53;;;23.60;85.60;;;;;;5027973;28;20041;-74
2023/06/18 10:46:18;;;;;;;5.40;3.45;;;23.70;85.10;;;;;;5027040;28;20060;-73
2023/06/18 10:49:17;;;;;;;6.22;3.78;;;23.70;85.10;;;;;;5020274;28;20258;-74
2023/06/18 10:52:14;;;;;;;6.35;3.50;;;23.80;81.70;;;;;;5034115;28;20084;-74
2023/06/18 10:54:45;;;;;;;6.35;3.50;;;23.90;81.70;;;;;;5013255;28;20452;-73
2023/06/18 10:57:16;;;;;;;6.57;3.42;;;24.00;82.90;;;;;;5023615;28;20037;-75
2023/06/18 10:59:44;;;;;;;6.68;3.38;;;24.10;82.50;;;;;;5020990;28;20513;-73
2023/06/18 11:02:11;;;;;;;4.50;3.17;;;24.20;82.40;;;;;;5023037;28;20118;-74
2023/06/18 11:04:37;;;;;;;4.50;3.08;;;24.20;82.10;;;;;;5021413;28;20041;-73
2023/06/18 11:07:23;;;;;;;5.45;3.22;;;24.30;82.10;;;;;;5010583;28;20037;-72
2023/06/18 11:09:58;;;;;;;;;;;24.30;80.70;;;;;;5038457;28;20092;-73
2023/06/18 11:12:29;;;;;;;5.88;3.15;;;24.40;77.90;;;;;;5024810;28;19970;-73
2023/06/18 11:15:15;;;;;;;4.95;3.10;;;24.50;81.70;;;;;;5024161;28;20098;-73
2023/06/18 11:17:49;;;;;;;5.30;3.45;;;24.60;78.10;;;;;;5024813;28;20395;-73
2023/06/18 11:20:19;;;;;;;4.78;3.03;;;24.70;79.60;;;;;;5026261;28;20059;-72
2023/06/18 11:22:45;;;;;;;5.35;2.85;;;24.80;78.00;;;;;;5022636;28;20077;-73
2023/06/18 11:25:12;;;;;;;5.68;3.38;;;24.80;76.10;;;;;;5025025;28;20064;-73
2023/06/18 11:27:44;;;;;;;7.38;3.50;;;24.80;75.10;;;;;;5023519;28;20033;-73
2023/06/18 11:30:13;;;;;;;6.10;3.80;;;24.80;74.30;;;;;;5023951;28;20037;-73
2023/06/18 11:32:40;;;;;;;4.90;3.03;;;24.80;74.40;;;;;;5024463;28;20041;-73
2023/06/18 11:35:07;;;;;;;6.53;3.33;;;24.80;74.00;;;;;;5026361;28;20045;-73
2023/06/18 11:37:34;;;;;;;6.38;3.33;;;24.80;73.50;;;;;;5041650;28;20041;-73
2023/06/18 11:40:00;;;;;;;6.55;3.33;;;24.80;73.50;;;;;;5022471;28;20130;-73
2023/06/18 11:42:26;;;;;;;7.30;3.40;;;24.90;73.30;;;;;;5040227;28;20037;-74
2023/06/18 11:44:54;;;;;;;6.63;3.38;;;24.90;73.00;;;;;;5010689;28;20043;-73
2023/06/18 11:47:20;;;;;;;5.65;3.80;;;25.00;72.80;;;;;;5041926;28;20048;-72
2023/06/18 11:49:48;;;;;;;6.80;3.25;;;25.00;73.20;;;;;;5006344;28;20501;-73
2023/06/18 11:52:17;;;;;;;6.70;3.67;;;25.00;73.40;;;;;;5003167;28;20483;-73
2023/06/18 11:54:44;;;;;;;5.82;3.15;;;25.00;72.90;;;;;;5021633;28;20041;-73
2023/06/18 11:57:11;;;;;;;5.13;3.30;;;25.00;72.90;;;;;;5023591;28;20486;-74
2023/06/18 11:59:39;;;;;;;5.50;3.40;;;25.00;72.80;;;;;;5020592;28;20052;-72
2023/06/18 12:02:12;;;;;;;5.78;2.92;;;25.00;72.20;;;;;;5039809;28;20052;-72
2023/06/18 12:04:40;;;;;;;6.50;3.80;;;25.10;71.60;;;;;;5002759;28;20056;-73
2023/06/18 12:07:06;;;;;;;6.47;3.85;;;25.10;71.90;;;;;;5018514;28;20697;-72
2023/06/18 12:09:33;;;;;;;6.68;3.30;;;25.10;71.80;;;;;;5018345;28;20399;-72
2023/06/18 12:12:23;;;;;;;5.80;3.33;;;25.20;71.50;;;;;;5019135;28;20041;-73
2023/06/18 12:14:55;;;;;;;6.07;3.42;;;25.30;70.40;;;;;;5014756;28;20044;-73
2023/06/18 12:17:59;;;;;;;5.30;3.10;;;25.30;69.90;;;;;;5020530;28;20494;-73
2023/06/18 12:20:27;;;;;;;7.95;3.75;;;25.30;67.60;;;;;;5005370;28;20041;-73
2023/06/18 12:22:58;;;;;;;5.03;2.90;;;25.40;68.90;;;;;;5018302;28;20041;-72
2023/06/18 12:25:27;;;;;;;5.97;3.38;;;25.30;68.60;;;;;;5018050;28;20329;-72
2023/06/18 12:27:54;;;;;;;5.72;3.40;;;25.30;67.60;;;;;;5018583;28;20033;-72
2023/06/18 12:30:37;;;;;;;7.57;3.65;;;25.30;66.50;;;;;;5020494;28;20068;-72
2023/06/18 12:33:09;;;;;;;5.60;3.28;;;25.30;66.20;;;;;;5022421;28;20044;-72
2023/06/18 12:35:36;;;;;;;7.65;3.58;;;25.30;66.80;;;;;;5036756;28;20044;-73
2023/06/18 12:38:08;;;;;;;6.63;3.55;;;25.40;67.30;;;;;;5023387;28;20474;-73
2023/06/18 12:40:35;;;;;;;5.75;3.53;;;25.40;67.20;;;;;;5023522;28;20367;-73
2023/06/18 12:43:08;;;;;;;8.45;3.55;;;25.50;67.30;;;;;;5023092;28;20513;-73